Mount Moornapa, Australia
Current Conditions -  °F | °C
As of 12:08 AM on Wednesday 22 Oct 2014 (Local Time) from YMAY Reporting Station
Clear Clear  
Wind Chill: 59°   Ceiling: Unl
Heat Index: 59°   Visibility: 6mi
Dew Point: 54°   Wind: 6mph
Humidity: 82%   Direction: 150°SSE
Pressure: 30.24"   Gusts: NA
Location:  37.75°S, 147.13°E
Report Text: YMAY 211308Z AUTO 15005KT 9000 // NCD 15/12 Q1024
Loading
Personal Weather Stations






























Interactive Weather Map
Tropical Storm Tracking
New forecast layout! Learn more

10-Day Weather Forecast

Advertisements
Track Severe Weather on mobile